createdAt,value
2018-02-16T00:01:52.150Z,19.40
2018-02-16T00:06:55.344Z,21.13
2018-02-16T00:11:58.650Z,22.47
2018-02-16T00:17:02.605Z,26.73
2018-02-16T00:22:08.209Z,19.03
2018-02-16T00:27:12.663Z,16.70
2018-02-16T00:32:15.886Z,18.00
2018-02-16T00:37:19.041Z,23.27
2018-02-16T00:42:22.162Z,23.33
2018-02-16T00:47:26.103Z,21.60
2018-02-16T00:52:30.013Z,18.87
2018-02-16T00:57:33.391Z,19.07
2018-02-16T01:02:37.537Z,21.87
2018-02-16T01:07:41.082Z,20.17
2018-02-16T01:12:44.910Z,19.10
2018-02-16T01:17:48.877Z,24.83
2018-02-16T01:22:52.876Z,21.35
2018-02-16T01:27:57.956Z,22.80
2018-02-16T01:33:02.024Z,22.50
2018-02-16T01:38:05.225Z,25.67
2018-02-16T01:43:08.388Z,23.73
2018-02-16T01:48:13.203Z,24.13
2018-02-16T01:53:17.222Z,26.07
2018-02-16T01:58:21.250Z,24.77
2018-02-16T02:03:24.395Z,23.03
2018-02-16T02:08:29.247Z,23.83
2018-02-16T02:13:32.424Z,22.47
2018-02-16T02:18:36.952Z,24.43
2018-02-16T02:23:40.967Z,23.60
2018-02-16T02:28:44.063Z,24.53
2018-02-16T02:33:49.611Z,21.70
2018-02-16T02:38:53.019Z,21.77
2018-02-16T02:43:56.932Z,21.00
2018-02-16T02:49:00.876Z,20.27
2018-02-16T02:54:04.781Z,19.92
2018-02-16T02:59:10.104Z,18.40
2018-02-16T03:04:13.311Z,21.03
2018-02-16T03:09:18.199Z,20.20
2018-02-16T03:14:22.103Z,20.67
2018-02-16T03:19:25.219Z,19.77
2018-02-16T03:24:29.107Z,20.70
2018-02-16T03:29:33.117Z,21.53
2018-02-16T03:34:36.279Z,20.10
2018-02-16T03:39:39.467Z,20.60
2018-02-16T03:44:43.800Z,19.67
2018-02-16T03:49:46.968Z,20.70
2018-02-16T03:54:50.542Z,19.30
2018-02-16T03:59:54.407Z,17.43
2018-02-16T04:04:57.706Z,18.83
2018-02-16T04:10:01.239Z,19.93
2018-02-16T04:15:04.706Z,19.40
2018-02-16T04:20:07.786Z,18.67
2018-02-16T04:25:10.863Z,19.37
2018-02-16T04:30:14.731Z,20.23
2018-02-16T04:35:17.900Z,17.43
2018-02-16T04:40:23.128Z,22.37
2018-02-16T04:45:27.070Z,21.70
2018-02-16T04:50:31.120Z,21.37
2018-02-16T04:55:35.352Z,19.53
2018-02-16T05:00:39.213Z,18.83
2018-02-16T05:05:43.647Z,20.83
2018-02-16T05:10:46.743Z,22.70
2018-02-16T05:15:49.843Z,19.20
2018-02-16T05:20:52.945Z,20.87
2018-02-16T05:25:57.161Z,20.60
2018-02-16T05:31:01.400Z,21.07
2018-02-16T05:36:05.888Z,19.70
2018-02-16T05:41:10.473Z,21.02
2018-02-16T05:46:14.711Z,21.63
2018-02-16T05:51:18.248Z,21.47
2018-02-16T05:56:21.721Z,21.90
2018-02-16T06:01:26.312Z,22.30
2018-02-16T06:06:30.165Z,21.03
2018-02-16T06:11:33.243Z,21.90
2018-02-16T06:16:36.729Z,20.20
2018-02-16T06:21:40.987Z,20.60
2018-02-16T06:26:45.420Z,22.57
2018-02-16T06:31:49.507Z,22.43
2018-02-16T06:36:53.940Z,21.33
2018-02-16T06:41:58.407Z,21.80
2018-02-16T06:47:02.608Z,21.23
2018-02-16T06:52:06.094Z,23.70
2018-02-16T06:57:09.182Z,23.27
2018-02-16T07:02:13.024Z,21.53
2018-02-16T07:07:17.457Z,21.77
2018-02-16T07:12:20.936Z,23.23
2018-02-16T07:17:25.569Z,21.75
2018-02-16T07:22:29.052Z,22.07
2018-02-16T07:27:32.543Z,21.57
2018-02-16T07:32:35.636Z,22.00
2018-02-16T07:37:39.483Z,23.30
2018-02-16T07:42:42.623Z,23.87
2018-02-16T07:47:47.062Z,23.30
2018-02-16T07:52:50.539Z,20.80
2018-02-16T07:57:53.632Z,17.60
2018-02-16T08:02:58.779Z,18.73
2018-02-16T08:08:02.655Z,18.27
2018-02-16T08:13:06.864Z,15.70
2018-02-16T08:18:10.719Z,15.67
2018-02-16T08:23:14.943Z,13.83
2018-02-16T08:28:18.795Z,12.97
2018-02-16T08:33:22.279Z,12.97
2018-02-16T08:38:25.808Z,12.83
2018-02-16T08:43:29.684Z,12.73
2018-02-16T08:48:33.176Z,12.30
2018-02-16T08:53:37.780Z,11.85
2018-02-16T08:58:41.671Z,11.40
2018-02-16T09:03:45.554Z,10.43
2018-02-16T09:08:48.644Z,10.77
2018-02-16T09:13:53.087Z,9.37
2018-02-16T09:18:56.180Z,7.30
2018-02-16T09:24:00.790Z,8.40
2018-02-16T09:29:04.268Z,7.50
2018-02-16T09:34:07.392Z,8.27
2018-02-16T09:39:14.660Z,7.28
2018-02-16T09:44:17.744Z,6.93
2018-02-16T09:49:21.232Z,7.07
2018-02-16T09:54:25.091Z,6.40
2018-02-16T09:59:28.584Z,5.73
2018-02-16T10:04:33.167Z,5.83
2018-02-16T10:09:36.657Z,6.00
2018-02-16T10:14:41.083Z,5.73
2018-02-16T10:19:45.314Z,5.97
2018-02-16T10:24:49.551Z,6.20
2018-02-16T10:29:53.076Z,5.60
2018-02-16T10:34:56.919Z,5.93
2018-02-16T10:40:01.128Z,5.53
2018-02-16T10:45:04.628Z,5.40
2018-02-16T10:50:09.052Z,5.77
2018-02-16T10:55:12.943Z,4.80
2018-02-16T11:00:18.798Z,4.37
2018-02-16T11:11:02.596Z,4.37
2018-02-16T11:16:07.162Z,4.87
2018-02-16T11:21:11.604Z,4.90
2018-02-16T11:26:16.056Z,4.27
2018-02-16T11:31:20.487Z,4.73
2018-02-16T11:36:23.579Z,4.80
2018-02-16T11:41:28.008Z,4.10
2018-02-16T11:46:31.845Z,4.30
2018-02-16T11:51:35.335Z,4.93
2018-02-16T11:56:38.408Z,3.57
2018-02-16T12:01:41.880Z,3.60
2018-02-16T12:06:46.471Z,4.20
2018-02-16T12:11:50.332Z,3.77
2018-02-16T12:16:54.559Z,4.30
2018-02-16T12:21:57.655Z,3.70
2018-02-16T12:27:01.127Z,4.30
2018-02-16T12:32:04.255Z,4.67
2018-02-16T12:37:07.336Z,3.90
2018-02-16T12:42:12.692Z,4.30
2018-02-16T12:47:16.546Z,3.73
2018-02-16T12:52:20.760Z,4.17
2018-02-16T12:57:23.900Z,3.83
2018-02-16T13:02:26.996Z,3.83
2018-02-16T13:07:31.220Z,4.33
2018-02-16T13:12:34.296Z,3.83
2018-02-16T13:17:37.664Z,3.62
2018-02-16T13:22:41.504Z,4.00
2018-02-16T13:27:45.933Z,4.00
2018-02-16T13:32:49.414Z,4.30
2018-02-16T13:37:53.834Z,4.40
2018-02-16T13:42:57.759Z,4.17
2018-02-16T13:48:01.604Z,4.17
2018-02-16T13:53:04.672Z,3.93
2018-02-16T13:58:07.755Z,4.03
2018-02-16T14:03:12.178Z,3.30
2018-02-16T14:08:16.618Z,3.00
2018-02-16T14:13:19.707Z,3.33
2018-02-16T14:18:22.828Z,3.60
2018-02-16T14:23:25.953Z,3.20
2018-02-16T14:28:29.827Z,2.90
2018-02-16T14:33:34.265Z,4.07
2018-02-16T14:38:38.696Z,3.03
2018-02-16T14:43:41.771Z,3.10
2018-02-16T14:48:46.614Z,2.80
2018-02-16T14:53:50.501Z,3.97
2018-02-16T14:58:53.942Z,3.83
2018-02-16T15:03:57.035Z,3.03
2018-02-16T15:09:00.108Z,2.80
2018-02-16T15:14:03.939Z,2.73
2018-02-16T15:19:08.150Z,3.00
2018-02-16T15:24:12.351Z,2.90
2018-02-16T15:29:16.563Z,3.10
2018-02-16T15:34:19.694Z,2.75
2018-02-16T15:39:23.147Z,2.93
2018-02-16T15:44:26.236Z,2.93
2018-02-16T15:49:29.312Z,3.70
2018-02-16T15:54:32.788Z,3.37
2018-02-16T15:59:36.624Z,3.20
2018-02-16T16:04:39.916Z,3.30
2018-02-16T16:09:44.520Z,3.10
2018-02-16T16:14:47.611Z,3.27
2018-02-16T16:19:50.714Z,3.20
2018-02-16T16:24:55.510Z,2.87
2018-02-16T16:29:59.357Z,3.10
2018-02-16T16:35:03.196Z,3.97
2018-02-16T16:40:07.406Z,3.77
2018-02-16T16:45:11.848Z,3.57
2018-02-16T16:50:16.273Z,3.60
2018-02-16T16:55:20.336Z,3.70
2018-02-16T17:00:23.424Z,4.70
2018-02-16T17:05:26.495Z,3.50
2018-02-16T17:10:31.284Z,3.33
2018-02-16T17:15:34.767Z,4.10
2018-02-16T17:20:39.206Z,3.47
2018-02-16T17:25:43.834Z,4.27
2018-02-16T17:30:47.132Z,4.30
2018-02-16T17:35:51.570Z,4.10
2018-02-16T17:40:55.045Z,5.90
2018-02-16T17:45:58.521Z,13.20
2018-02-16T17:51:02.974Z,8.17
2018-02-16T17:56:07.555Z,103.67
2018-02-16T18:01:10.679Z,13.83
2018-02-16T18:06:14.557Z,12.57
2018-02-16T18:11:17.633Z,10.70
2018-02-16T18:16:21.113Z,6.33
2018-02-16T18:21:24.592Z,8.10
2018-02-16T18:26:28.810Z,10.00
2018-02-16T18:31:32.653Z,7.43
2018-02-16T18:36:36.867Z,11.63
2018-02-16T18:41:40.739Z,9.50
2018-02-16T18:46:43.820Z,8.73
2018-02-16T18:51:46.908Z,8.17
2018-02-16T18:56:50.759Z,7.17
2018-02-16T19:01:53.833Z,6.50
2018-02-16T19:06:58.040Z,6.70
2018-02-16T19:12:01.283Z,6.55
2018-02-16T19:17:04.802Z,8.33
2018-02-16T19:22:08.640Z,8.00
2018-02-16T19:27:13.271Z,8.37
2018-02-16T19:32:17.894Z,8.87
2018-02-16T19:37:22.555Z,7.97
2018-02-16T19:42:26.452Z,9.23
2018-02-16T19:47:29.980Z,8.80
2018-02-16T19:52:33.061Z,8.77
2018-02-16T19:57:36.183Z,10.05
2018-02-16T20:02:39.279Z,10.52
2018-02-16T20:07:43.701Z,16.80
2018-02-16T20:12:46.868Z,15.47
2018-02-16T20:17:49.956Z,15.60
2018-02-16T20:22:53.129Z,11.30
2018-02-16T20:27:56.216Z,11.30
2018-02-16T20:33:00.011Z,10.57
2018-02-16T20:38:03.196Z,10.03
2018-02-16T20:43:06.284Z,11.07
2018-02-16T20:48:09.373Z,10.77
2018-02-16T20:53:12.857Z,10.77
2018-02-16T20:58:16.751Z,10.53
2018-02-16T21:03:21.042Z,14.47
2018-02-16T21:08:24.122Z,10.90
2018-02-16T21:13:27.976Z,11.10
2018-02-16T21:18:31.072Z,10.53
2018-02-16T21:23:34.159Z,11.43
2018-02-16T21:28:38.588Z,11.40
2018-02-16T21:33:42.440Z,11.30
2018-02-16T21:38:46.869Z,11.97
2018-02-16T21:43:50.741Z,11.57
2018-02-16T21:48:53.821Z,10.17
2018-02-16T21:53:57.681Z,12.07
2018-02-16T21:59:01.138Z,11.30
2018-02-16T22:04:04.607Z,11.67
2018-02-16T22:09:08.087Z,11.60
2018-02-16T22:14:11.583Z,10.67
2018-02-16T22:19:15.463Z,10.27
2018-02-16T22:24:18.920Z,10.70
2018-02-16T22:29:23.367Z,11.10
2018-02-16T22:34:27.790Z,9.57
2018-02-16T22:39:32.224Z,10.57
2018-02-16T22:44:36.079Z,11.23
2018-02-16T22:49:39.167Z,11.40
2018-02-16T22:54:43.391Z,12.10
2018-02-16T22:59:46.499Z,11.47
2018-02-16T23:04:50.938Z,12.20
2018-02-16T23:09:54.033Z,11.77
2018-02-16T23:14:57.111Z,12.48
2018-02-16T23:20:01.335Z,12.65
2018-02-16T23:25:05.928Z,13.13
2018-02-16T23:30:09.644Z,12.30
2018-02-16T23:35:14.420Z,14.07
2018-02-16T23:40:18.860Z,13.33
2018-02-16T23:45:22.293Z,13.30
2018-02-16T23:50:26.723Z,13.60
2018-02-16T23:55:30.485Z,13.30
